Impacts TAF Board
For situational awareness. Not to be used for flight planning purposes.
IDs:

KLAL - Lakeland Rgnl, FL, US

Issued at 1740 UTC 30 Jun 2022
Updated at 2307 UTC 30 Jun 2022
Potential Impact None Slight Moderate High
Time2250Z 01/00Z 01/01Z 01/02Z 01/03Z 01/04Z 01/05Z 01/06Z 01/07Z 01/08Z 01/09Z 01/10Z 01/11Z 01/12Z>>
Type OBS PRVL PRVL PRVL PRVL PRVL PRVL PRVL PRVL PRVL PRVL PRVL PRVL PRVL
VIS 10 >6 >6 >6 >6 >6 >6 >6 >6 >6 >6 >6 >6 >6
CIG -- 200 200 60 60 60 60 60 60 60 60 60 60 60
Cover SCT BKN BKN BKN BKN BKN BKN BKN BKN BKN BKN BKN BKN BKN
FltCat VFR VFR VFR VFR VFR VFR VFR VFR VFR VFR VFR VFR VFR VFR
WX -- VCTS VCTS -- -- -- -- -- -- -- -- -- -- --
WDir 290 90 90 140 140 140 140 140 140 140 140 140 140 140
WSpd 5 4 4 4 4 4 4 4 4 4 4 4 4 4
WGst -- -- -- -- -- -- -- -- -- -- -- -- -- --
WSHgt -- -- -- -- -- -- -- -- -- -- -- -- -- --
WSDir -- -- -- -- -- -- -- -- -- -- -- -- -- --
WSSpd -- -- -- -- -- -- -- -- -- -- -- -- -- --
Raw TAF
KLAL 301740Z 3018/0118 VRB03KT P6SM FEW040 SCT150
  FM302200 09004KT P6SM VCTS SCT035CB BKN200
  FM010200 14004KT P6SM SCT025 BKN060
  FM011600 18004KT P6SM SCT090


Raw METAR
KLAL 302250Z 29005KT 10SM SCT085 28/20 A3005
KLAL 302150Z 29008KT 10SM VCTS SCT090CB SCT120 29/21 A3006 RMK VCTS W MOV W FRQ LTG ICCG W
KLAL 302115Z 27007KT 10SM VCTS SCT065CB BKN075 31/22 A3006 RMK VCTS W MOV W FRQ LTG ICCG W
KLAL 302050Z 35003KT 10SM VCTS SCT050CB SCT085 33/20 A3006 RMK VCTS W MOV W FRQ LTG ICCG W

METAR Board
Radar Display
Forecast Discussion
For situational awareness. Not to be used for flight planning purposes.